Time;durP1;ratioP1;P1;durP2;ratioP2;P2;SDS_P1;SDS_P2;PMS_P1;PMS_P2;Temp;Humidity;BMP_temperature;BMP_pressure;BME280_temperature;BME280_humidity;BME280_pressure;Samples;Min_cycle;Max_cycle;Signal;HPM_P1;HPM_P2
2023/04/22 00:01:56;;;;;;;8.57;6.78;;;;;;;5.69;94.54;100770.69;4865986;29;20044;-69
2023/04/22 00:04:21;;;;;;;8.85;7.53;;;;;;;5.61;94.71;100765.41;4881193;29;20079;-70
2023/04/22 00:06:47;;;;;;;9.50;7.55;;;;;;;5.59;94.72;100767.16;4881321;29;20066;-69
2023/04/22 00:09:12;;;;;;;8.52;6.90;;;;;;;5.55;94.53;100763.63;4878977;29;20080;-70
2023/04/22 00:11:37;;;;;;;9.77;8.07;;;;;;;5.53;94.99;100765.38;4876588;29;20040;-70
2023/04/22 00:14:03;;;;;;;10.98;8.82;;;;;;;5.55;95.77;100760.19;4895188;29;20131;-70
2023/04/22 00:16:28;;;;;;;10.10;8.30;;;;;;;5.55;95.77;100770.56;4898571;29;20054;-69
2023/04/22 00:18:54;;;;;;;12.05;9.13;;;;;;;5.55;96.34;100761.03;4882977;29;20059;-70
2023/04/22 00:21:19;;;;;;;15.02;9.50;;;;;;;5.54;96.72;100758.44;4887651;29;20043;-69
2023/04/22 00:23:45;;;;;;;10.88;8.90;;;;;;;5.58;97.06;100754.13;4883030;29;20059;-70
2023/04/22 00:26:11;;;;;;;15.05;11.43;;;;;;;5.68;98.42;100755.94;4899498;29;20063;-69
2023/04/22 00:28:36;;;;;;;13.30;10.40;;;;;;;5.64;99.27;100754.19;4878831;29;20036;-70
2023/04/22 00:31:03;;;;;;;12.55;10.32;;;;;;;5.62;98.88;100754.16;4892569;29;20488;-70
2023/04/22 00:33:29;;;;;;;14.60;11.15;;;;;;;5.61;98.64;100756.75;4874053;29;20041;-70
2023/04/22 00:35:54;;;;;;;14.88;11.90;;;;;;;5.61;97.89;100755.00;4870808;29;20059;-73
2023/04/22 00:38:20;;;;;;;15.48;11.23;;;;;;;5.61;97.79;100755.00;4886647;29;20056;-74
2023/04/22 00:40:46;;;;;;;15.45;12.45;;;;;;;5.63;98.67;100755.03;4883022;29;20071;-74
2023/04/22 00:43:12;;;;;;;14.30;12.35;;;;;;;5.66;98.98;100752.44;4901053;29;20055;-74
2023/04/22 00:45:38;;;;;;;14.82;12.25;;;;;;;5.69;98.56;100755.09;4885805;29;20140;-74
2023/04/22 00:48:04;;;;;;;15.82;11.80;;;;;;;5.70;99.60;100752.50;4885828;29;20051;-74
2023/04/22 00:50:30;;;;;;;14.10;11.80;;;;;;;5.71;99.00;100750.75;4889231;29;20050;-74
2023/04/22 00:52:55;;;;;;;15.48;11.77;;;;;;;5.74;99.72;100761.19;4886932;29;20057;-74
2023/04/22 00:55:21;;;;;;;13.35;11.70;;;;;;;5.70;99.84;100749.00;4899901;29;20048;-74
2023/04/22 00:57:50;;;;;;;15.68;11.70;;;;;;;5.76;99.91;100756.88;4883828;29;20147;-74
2023/04/22 01:00:19;;;;;;;11.93;10.48;;;;;;;5.76;99.32;100749.06;4898632;29;20091;-74
2023/04/22 01:02:45;;;;;;;13.00;9.90;;;;;;;5.80;98.92;100758.59;4883586;29;20052;-74
2023/04/22 01:05:10;;;;;;;14.15;9.82;;;;;;;5.79;99.36;100756.88;4863683;29;20036;-74
2023/04/22 01:07:36;;;;;;;11.77;9.57;;;;;;;5.81;99.12;100756.91;4877398;29;20037;-74
2023/04/22 01:10:02;;;;;;;12.05;9.15;;;;;;;5.80;99.72;100757.75;4893601;29;20044;-74
2023/04/22 01:12:28;;;;;;;12.07;9.43;;;;;;;5.74;98.85;100753.38;4885875;29;20477;-70
2023/04/22 01:14:55;;;;;;;10.95;8.55;;;;;;;5.71;97.44;100753.34;4881388;29;20047;-70
2023/04/22 01:17:21;;;;;;;9.63;8.15;;;;;;;5.74;98.13;100748.16;4896601;29;20048;-70
2023/04/22 01:19:47;;;;;;;10.68;8.93;;;;;;;5.75;98.64;100746.44;4890912;29;20094;-70
2023/04/22 01:22:13;;;;;;;11.68;8.95;;;;;;;5.72;98.12;100748.16;4883337;29;20051;-70
2023/04/22 01:24:40;;;;;;;13.50;9.23;;;;;;;5.71;97.58;100742.97;4877721;29;20044;-69
2023/04/22 01:27:05;;;;;;;12.63;9.50;;;;;;;5.74;98.44;100750.78;4895581;29;20126;-70
2023/04/22 01:29:31;;;;;;;12.65;9.45;;;;;;;5.74;98.50;100740.38;4900642;29;20131;-70
2023/04/22 01:31:57;;;;;;;10.90;8.93;;;;;;;5.76;98.82;100738.66;4894302;29;20204;-70
2023/04/22 01:34:23;;;;;;;10.52;8.23;;;;;;;5.72;98.23;100742.09;4863364;29;20075;-70
2023/04/22 01:36:49;;;;;;;12.00;9.30;;;;;;;5.78;99.11;100741.28;4886140;29;20037;-70
2023/04/22 01:39:15;;;;;;;11.65;9.63;;;;;;;5.80;99.37;100735.19;4900741;29;20488;-74
2023/04/22 01:41:41;;;;;;;12.77;10.13;;;;;;;5.81;99.66;100731.75;4897530;29;20059;-74
2023/04/22 01:44:06;;;;;;;12.25;10.23;;;;;;;5.83;99.60;100730.03;4892136;29;20120;-70
2023/04/22 01:46:33;;;;;;;11.30;9.32;;;;;;;5.85;99.67;100733.50;4867137;29;20036;-70
2023/04/22 01:48:58;;;;;;;11.48;9.85;;;;;;;5.82;98.98;100730.91;4885068;29;20095;-70
2023/04/22 01:51:24;;;;;;;11.15;9.18;;;;;;;5.83;99.36;100730.03;4879768;29;20458;-70
2023/04/22 01:53:50;;;;;;;10.75;8.57;;;;;;;5.82;98.63;100728.28;4892911;29;20567;-70
2023/04/22 01:56:15;;;;;;;11.00;9.10;;;;;;;5.82;98.13;100723.09;4881668;29;20049;-69
2023/04/22 01:58:41;;;;;;;10.73;8.63;;;;;;;5.83;98.12;100732.66;4885203;29;20052;-70
2023/04/22 02:01:09;;;;;;;9.93;8.18;;;;;;;5.80;97.96;100723.94;4894045;29;20044;-70
2023/04/22 02:03:35;;;;;;;9.73;7.97;;;;;;;5.79;97.45;100722.19;4876613;29;20040;-70
2023/04/22 02:06:00;;;;;;;10.65;7.63;;;;;;;5.79;97.03;100725.69;4898053;29;20040;-69
2023/04/22 02:08:26;;;;;;;9.63;8.05;;;;;;;5.79;97.25;100728.28;4890639;29;20048;-70
2023/04/22 02:10:51;;;;;;;10.32;8.48;;;;;;;5.85;97.58;100717.06;4895052;29;20099;-70
2023/04/22 02:13:17;;;;;;;11.27;9.43;;;;;;;5.88;98.83;100717.91;4879250;29;20044;-70
2023/04/22 02:15:42;;;;;;;10.88;9.43;;;;;;;5.90;99.63;100718.81;4863290;29;20143;-70
2023/04/22 02:18:09;;;;;;;11.10;9.45;;;;;;;5.91;99.87;100717.06;4870114;29;20044;-70
2023/04/22 02:20:35;;;;;;;11.85;9.88;;;;;;;5.92;100.00;100712.72;4891086;29;20072;-70
2023/04/22 02:23:01;;;;;;;11.98;10.23;;;;;;;5.96;100.00;100709.28;4883714;29;20066;-70
2023/04/22 02:25:27;;;;;;;15.88;10.35;;;;;;;5.96;100.00;100711.88;4894551;29;20044;-70
2023/04/22 02:27:52;;;;;;;13.40;10.82;;;;;;;5.98;100.00;100712.81;4880952;29;20175;-70
2023/04/22 02:30:18;;;;;;;13.35;10.13;;;;;;;5.98;100.00;100702.41;4856882;29;20053;-70
2023/04/22 02:32:43;;;;;;;14.73;11.25;;;;;;;6.02;100.00;100719.75;4883690;29;20054;-70
2023/04/22 02:35:10;;;;;;;12.55;10.40;;;;;;;6.04;100.00;100712.84;4882900;29;20041;-70
2023/04/22 02:37:35;;;;;;;12.90;10.57;;;;;;;6.05;100.00;100707.63;4895310;29;20043;-70
2023/04/22 02:40:01;;;;;;;14.82;11.35;;;;;;;6.10;100.00;100705.06;4891913;29;20035;-70
2023/04/22 02:42:26;;;;;;;16.83;11.73;;;;;;;6.13;100.00;100702.47;4913973;29;20114;-70
2023/04/22 02:44:52;;;;;;;15.88;13.05;;;;;;;6.19;100.00;100704.22;4868516;29;20043;-70
2023/04/22 02:47:17;;;;;;;13.75;12.25;;;;;;;6.19;100.00;100697.31;4873415;29;20044;-70
2023/04/22 02:49:42;;;;;;;17.10;13.27;;;;;;;6.26;100.00;100705.13;4854276;29;20039;-70
2023/04/22 02:52:08;;;;;;;17.75;14.05;;;;;;;6.27;100.00;100693.84;4883466;29;20044;-70
2023/04/22 02:54:33;;;;;;;18.33;14.02;;;;;;;6.28;100.00;100686.06;4881743;29;20044;-70
2023/04/22 02:57:00;;;;;;;17.42;14.18;;;;;;;6.33;100.00;100683.47;4869963;29;20036;-70
2023/04/22 02:59:25;;;;;;;19.35;15.98;;;;;;;6.39;100.00;100696.47;4883666;29;20172;-70
2023/04/22 03:01:51;;;;;;;18.90;15.50;;;;;;;6.45;100.00;100696.53;4863459;29;20513;-70
2023/04/22 03:04:16;;;;;;;19.63;16.10;;;;;;;6.47;100.00;100702.59;4880117;29;20059;-70
2023/04/22 03:06:41;;;;;;;24.42;16.13;;;;;;;6.50;100.00;100697.38;4878542;29;20040;-70
2023/04/22 03:09:07;;;;;;;18.33;16.17;;;;;;;6.52;100.00;100689.56;4891814;29;20155;-70
2023/04/22 03:11:32;;;;;;;18.27;16.13;;;;;;;6.52;100.00;100693.06;4862963;29;20526;-70
2023/04/22 03:13:58;;;;;;;19.42;16.27;;;;;;;6.52;100.00;100694.78;4866610;29;20044;-70
2023/04/22 03:16:23;;;;;;;18.10;15.13;;;;;;;6.51;100.00;100698.28;4864530;29;20040;-70
2023/04/22 03:18:49;;;;;;;18.75;15.68;;;;;;;6.50;100.00;100691.31;4864522;29;20044;-70
2023/04/22 03:21:15;;;;;;;20.73;16.42;;;;;;;6.51;100.00;100682.66;4875150;29;20488;-70
2023/04/22 03:23:41;;;;;;;19.42;16.05;;;;;;;6.51;100.00;100678.31;4868407;29;20051;-70
2023/04/22 03:26:06;;;;;;;19.88;15.30;;;;;;;6.51;100.00;100682.66;4852439;29;20037;-70
2023/04/22 03:28:32;;;;;;;19.27;16.40;;;;;;;6.52;100.00;100685.25;4887645;29;20139;-70
2023/04/22 03:30:57;;;;;;;20.08;15.75;;;;;;;6.50;100.00;100676.56;4878400;29;20060;-70
2023/04/22 03:33:23;;;;;;;16.17;13.70;;;;;;;6.46;99.88;100674.81;4888471;29;20096;-70
2023/04/22 03:35:48;;;;;;;14.65;12.48;;;;;;;6.41;98.80;100666.13;4895609;29;20044;-70
2023/04/22 03:38:14;;;;;;;19.35;14.38;;;;;;;6.38;98.80;100660.94;4879938;29;20132;-70
2023/04/22 03:40:41;;;;;;;17.40;13.75;;;;;;;6.39;98.73;100667.84;4876312;29;20075;-70
2023/04/22 03:43:07;;;;;;;15.23;13.40;;;;;;;6.36;98.90;100657.44;4889373;29;20041;-70
2023/04/22 03:45:32;;;;;;;16.42;14.23;;;;;;;6.33;98.56;100657.44;4861928;29;20048;-70
2023/04/22 03:47:58;;;;;;;16.67;14.02;;;;;;;6.34;98.57;100659.19;4882137;29;20048;-70
2023/04/22 03:50:24;;;;;;;15.73;14.05;;;;;;;6.32;98.70;100656.56;4878888;29;20040;-70
2023/04/22 03:52:49;;;;;;;17.50;14.68;;;;;;;6.32;99.05;100656.56;4884870;29;20063;-70
2023/04/22 03:55:15;;;;;;;16.20;13.45;;;;;;;6.28;99.12;100664.34;4895560;29;20444;-70
2023/04/22 03:57:40;;;;;;;17.10;13.73;;;;;;;6.26;98.40;100656.53;4880168;29;20052;-70
2023/04/22 04:00:06;;;;;;;17.20;14.85;;;;;;;6.24;98.49;100651.34;4883580;29;20049;-70
2023/04/22 04:02:32;;;;;;;17.40;14.52;;;;;;;6.22;98.25;100645.28;4876472;29;20457;-70
2023/04/22 04:04:57;;;;;;;19.00;14.75;;;;;;;6.21;98.48;100648.72;4868152;29;20040;-70
2023/04/22 04:07:23;;;;;;;17.77;15.13;;;;;;;6.22;98.93;100646.97;4880932;29;20044;-70
2023/04/22 04:09:48;;;;;;;18.48;15.27;;;;;;;6.21;98.60;100646.13;4865907;29;20096;-70
2023/04/22 04:12:14;;;;;;;16.55;14.68;;;;;;;6.20;98.67;100641.78;4855819;29;20055;-70
2023/04/22 04:14:39;;;;;;;17.15;14.52;;;;;;;6.19;97.97;100640.06;4883517;29;20095;-70
2023/04/22 04:17:08;;;;;;;16.38;14.07;;;;;;;6.17;97.98;100641.78;4860923;29;20048;-70
2023/04/22 04:19:35;;;;;;;17.23;14.02;;;;;;;6.14;98.17;100635.69;4867882;29;20048;-70
2023/04/22 04:22:01;;;;;;;17.67;15.00;;;;;;;6.15;98.70;100634.81;4878954;29;20039;-70
2023/04/22 04:24:27;;;;;;;18.88;14.63;;;;;;;6.14;98.36;100636.56;4878003;29;20071;-70
2023/04/22 04:26:52;;;;;;;17.95;15.32;;;;;;;6.14;98.79;100635.69;4864618;29;20461;-74
2023/04/22 04:29:19;;;;;;;21.63;16.50;;;;;;;6.13;99.32;100637.41;4877019;29;20044;-74
2023/04/22 04:31:45;;;;;;;18.05;16.08;;;;;;;6.16;100.00;100642.66;4900831;29;20039;-74
2023/04/22 04:34:10;;;;;;;17.90;15.40;;;;;;;6.15;99.73;100648.72;4874361;29;20056;-74
2023/04/22 04:36:38;;;;;;;17.30;14.63;;;;;;;6.13;98.96;100647.81;4874784;29;20055;-74
2023/04/22 04:39:05;;;;;;;17.58;14.50;;;;;;;6.13;98.92;100640.03;4879449;29;20613;-74
2023/04/22 04:41:30;;;;;;;17.25;14.07;;;;;;;6.12;98.73;100633.09;4890616;29;20032;-74
2023/04/22 04:43:59;;;;;;;15.60;13.95;;;;;;;6.14;99.01;100636.56;4893713;29;20404;-74
2023/04/22 04:46:28;;;;;;;17.88;14.60;;;;;;;6.11;99.04;100636.56;4868933;29;20298;-74
2023/04/22 04:48:54;;;;;;;19.02;13.77;;;;;;;6.13;98.84;100633.97;4861622;29;20139;-74
2023/04/22 04:51:19;;;;;;;16.20;14.48;;;;;;;6.13;98.80;100634.81;4887862;29;20059;-74
2023/04/22 04:53:45;;;;;;;17.20;14.85;;;;;;;6.10;98.87;100631.34;4886060;29;20111;-74
2023/04/22 04:56:10;;;;;;;16.13;14.05;;;;;;;6.10;98.21;100632.22;4864066;29;20091;-74
2023/04/22 04:58:35;;;;;;;14.82;12.90;;;;;;;6.12;98.71;100638.31;4863635;29;20071;-74
2023/04/22 05:01:01;;;;;;;16.98;13.23;;;;;;;6.13;98.07;100632.22;4875825;29;20056;-74
2023/04/22 05:03:26;;;;;;;17.63;15.40;;;;;;;6.15;98.69;100638.31;4856941;29;20048;-74
2023/04/22 05:05:52;;;;;;;19.30;15.88;;;;;;;6.15;99.47;100643.50;4868570;29;20077;-74
2023/04/22 05:08:17;;;;;;;18.52;15.23;;;;;;;6.15;99.48;100643.50;4864903;29;20036;-74
2023/04/22 05:10:43;;;;;;;20.25;15.23;;;;;;;6.17;100.00;100640.91;4907545;29;20055;-74
2023/04/22 05:13:09;;;;;;;17.92;15.20;;;;;;;6.13;100.00;100644.38;4866738;29;20041;-74
2023/04/22 05:15:35;;;;;;;17.60;15.32;;;;;;;6.16;100.00;100642.66;4882661;29;20062;-74
2023/04/22 05:18:01;;;;;;;18.13;15.05;;;;;;;6.20;100.00;100641.78;4881068;29;20103;-74
2023/04/22 05:20:26;;;;;;;16.38;14.40;;;;;;;6.22;100.00;100644.38;4869339;29;20104;-71
2023/04/22 05:22:52;;;;;;;15.63;13.00;;;;;;;6.24;100.00;100646.13;4882196;29;20055;-70
2023/04/22 05:25:17;;;;;;;16.27;13.95;;;;;;;6.27;100.00;100641.81;4896955;29;20047;-70
2023/04/22 05:27:43;;;;;;;15.27;13.60;;;;;;;6.26;100.00;100629.66;4881852;29;20036;-70
2023/04/22 05:30:09;;;;;;;15.25;13.65;;;;;;;6.29;100.00;100635.72;4890983;29;20036;-71
2023/04/22 05:32:34;;;;;;;16.33;13.35;;;;;;;6.34;100.00;100639.22;4882070;29;20032;-71
2023/04/22 05:35:00;;;;;;;16.48;14.70;;;;;;;6.38;100.00;100633.16;4878434;29;20556;-70
2023/04/22 05:37:25;;;;;;;23.95;15.77;;;;;;;6.47;100.00;100640.13;4872678;29;20053;-71
2023/04/22 05:39:50;;;;;;;18.63;15.25;;;;;;;6.52;100.00;100638.41;4863119;29;20191;-71
2023/04/22 05:42:16;;;;;;;19.92;16.33;;;;;;;6.62;100.00;100634.03;4877853;29;20040;-70
2023/04/22 05:44:41;;;;;;;20.35;17.55;;;;;;;6.71;100.00;100633.19;4877854;29;20433;-71
2023/04/22 05:47:07;;;;;;;19.98;17.45;;;;;;;6.80;100.00;100635.81;4877652;29;20043;-71
2023/04/22 05:49:32;;;;;;;19.45;16.48;;;;;;;6.93;100.00;100640.16;4860888;29;20044;-70
2023/04/22 05:51:58;;;;;;;19.20;16.85;;;;;;;7.02;100.00;100641.03;4858634;29;20170;-71
2023/04/22 05:54:23;;;;;;;20.67;17.58;;;;;;;7.10;100.00;100634.94;4880157;29;20485;-71
2023/04/22 05:56:48;;;;;;;22.17;17.40;;;;;;;7.20;100.00;100634.94;4866488;29;20048;-70
2023/04/22 05:59:14;;;;;;;22.00;17.63;;;;;;;7.38;100.00;100634.88;4860597;29;20044;-71
2023/04/22 06:01:40;;;;;;;19.23;17.17;;;;;;;7.53;100.00;100627.91;4876579;29;20044;-71
2023/04/22 06:04:08;;;;;;;19.42;17.35;;;;;;;7.69;100.00;100628.75;4881626;29;20497;-71
2023/04/22 06:06:34;;;;;;;21.58;19.10;;;;;;;7.79;100.00;100627.84;4889476;29;20043;-71
2023/04/22 06:09:00;;;;;;;22.25;19.35;;;;;;;7.94;100.00;100616.47;4884776;29;20048;-70
2023/04/22 06:11:25;;;;;;;23.45;20.30;;;;;;;8.09;100.00;100623.38;4881382;29;20049;-70
2023/04/22 06:13:51;;;;;;;31.02;25.17;;;;;;;8.31;100.00;100619.75;4877091;29;20040;-71
2023/04/22 06:16:18;;;;;;;24.52;21.92;;;;;;;8.56;100.00;100622.25;4860720;29;20228;-71
2023/04/22 06:18:43;;;;;;;34.38;29.73;;;;;;;8.91;100.00;100623.72;4874870;29;20107;-71
2023/04/22 06:21:09;;;;;;;41.35;32.47;;;;;;;9.27;100.00;100616.41;4859319;29;20489;-71
2023/04/22 06:23:34;;;;;;;35.22;29.33;;;;;;;9.72;100.00;100621.16;4877443;29;20489;-71
2023/04/22 06:26:00;;;;;;;37.30;28.02;;;;;;;9.96;100.00;100620.00;4864885;29;20025;-71
2023/04/22 06:28:26;;;;;;;30.88;26.73;;;;;;;10.36;100.00;100619.50;4878570;29;20062;-71
2023/04/22 06:30:52;;;;;;;28.77;25.08;;;;;;;10.60;98.29;100614.75;4878838;29;20029;-71
2023/04/22 06:33:17;;;;;;;30.45;24.00;;;;;;;11.02;97.57;100617.59;4872663;29;20040;-75
2023/04/22 06:35:44;;;;;;;26.15;21.08;;;;;;;11.40;94.74;100604.66;4879427;29;20063;-75
2023/04/22 06:38:09;;;;;;;22.02;19.23;;;;;;;11.76;91.28;100604.84;4877015;29;20055;-75
2023/04/22 06:40:35;;;;;;;19.08;17.08;;;;;;;12.03;87.94;100608.66;4862209;29;20036;-75
2023/04/22 06:43:03;;;;;;;19.60;16.58;;;;;;;12.20;84.45;100615.34;4869420;29;20043;-75
2023/04/22 06:45:29;;;;;;;18.50;15.80;;;;;;;12.27;81.95;100623.03;4870344;29;20054;-75
2023/04/22 06:47:54;;;;;;;18.60;16.60;;;;;;;12.51;82.60;100619.88;4880939;29;20032;-74
2023/04/22 06:50:20;;;;;;;20.15;16.48;;;;;;;12.41;80.08;100614.84;4888623;29;20046;-75
2023/04/22 06:52:46;;;;;;;18.40;16.40;;;;;;;12.51;78.55;100604.97;4885947;29;20044;-75
2023/04/22 06:55:11;;;;;;;18.23;16.33;;;;;;;12.59;80.30;100599.53;4874916;29;20084;-75
2023/04/22 06:57:37;;;;;;;20.90;16.85;;;;;;;12.63;78.52;100604.69;4869988;29;20109;-75
2023/04/22 07:00:04;;;;;;;18.52;16.50;;;;;;;12.73;78.11;100596.56;4861945;29;20508;-75
2023/04/22 07:02:30;;;;;;;18.75;16.75;;;;;;;13.03;78.49;100592.31;4875011;29;20135;-75
2023/04/22 07:04:55;;;;;;;18.63;15.90;;;;;;;13.04;77.95;100591.38;4861556;29;20036;-75
2023/04/22 07:07:21;;;;;;;17.27;15.13;;;;;;;12.90;77.12;100593.50;4886381;29;20073;-75
2023/04/22 07:09:46;;;;;;;18.75;16.73;;;;;;;12.90;76.94;100597.03;4876447;29;20045;-75
2023/04/22 07:12:11;;;;;;;17.65;15.75;;;;;;;13.21;76.58;100598.84;4864902;29;20052;-75
2023/04/22 07:14:41;;;;;;;19.40;17.10;;;;;;;13.48;79.03;100589.38;4869038;29;20043;-75
2023/04/22 07:17:06;;;;;;;21.55;17.58;;;;;;;13.61;76.69;100599.56;4873269;29;20048;-75
2023/04/22 07:19:32;;;;;;;21.25;16.80;;;;;;;13.78;75.59;100602.56;4871232;29;20527;-75
2023/04/22 07:21:57;;;;;;;18.40;16.08;;;;;;;14.00;74.54;100592.25;4860302;29;20486;-75
2023/04/22 07:24:23;;;;;;;27.27;16.50;;;;;;;13.93;73.92;100590.72;4856735;29;20066;-75
2023/04/22 07:26:48;;;;;;;17.10;15.27;;;;;;;14.10;74.37;100598.13;4870431;29;20147;-75
2023/04/22 07:29:13;;;;;;;17.80;15.18;;;;;;;13.76;72.99;100591.22;4863698;29;20082;-75
2023/04/22 07:34:34;;;;;;;17.75;14.80;;;;;;;13.52;75.23;100579.63;5484774;23;20026;-72
2023/04/22 07:44:47;;;;;;;16.20;14.50;;;;;;;14.43;74.61;100592.72;5187929;23;20060;-72
2023/04/22 08:14:57;;;;;;;14.32;12.73;;;;;;;16.49;67.85;100567.75;1060539;23;20333;-77
2023/04/22 08:17:22;;;;;;;13.90;12.23;;;;;;;16.57;63.98;100557.72;4901222;29;20052;-76
2023/04/22 08:19:48;;;;;;;12.57;11.27;;;;;;;16.59;65.73;100560.31;4889927;29;20559;-76
2023/04/22 08:22:14;;;;;;;12.55;10.68;;;;;;;16.19;63.98;100554.88;4890323;29;20122;-75
2023/04/22 08:24:40;;;;;;;13.15;10.75;;;;;;;16.07;65.95;100563.28;4887538;29;20106;-76
2023/04/22 08:27:06;;;;;;;12.88;11.32;;;;;;;15.74;62.68;100560.97;4902099;29;20036;-75
2023/04/22 08:29:32;;;;;;;11.95;10.13;;;;;;;15.81;65.40;100554.56;4898935;29;20068;-75
2023/04/22 08:31:57;;;;;;;10.77;9.05;;;;;;;15.79;64.82;100560.81;4884794;29;20035;-71
2023/04/22 08:34:24;;;;;;;11.23;10.02;;;;;;;15.83;66.37;100550.09;4869421;29;20051;-72
2023/04/22 08:39:25;;;;;;;10.68;8.38;;;;;;;15.60;63.15;100543.00;5272373;23;20044;-69
2023/04/22 08:41:52;;;;;;;9.80;7.63;;;;;;;15.57;62.63;100549.28;4881208;29;20111;-69
2023/04/22 08:44:18;;;;;;;12.00;7.93;;;;;;;15.66;65.52;100549.81;4866101;29;20041;-69
2023/04/22 08:46:45;;;;;;;8.90;7.63;;;;;;;15.73;65.47;100551.31;4897179;29;20048;-69
2023/04/22 08:49:14;;;;;;;9.73;7.80;;;;;;;15.62;63.20;100537.69;4882508;29;20434;-69
2023/04/22 08:51:41;;;;;;;9.70;7.97;;;;;;;15.67;64.39;100533.91;4892235;29;20043;-69
2023/04/22 08:54:06;;;;;;;10.35;7.95;;;;;;;15.84;62.01;100530.66;4870898;29;20061;-69
2023/04/22 08:56:34;;;;;;;10.50;8.38;;;;;;;16.24;65.71;100515.03;4898241;29;20041;-69
2023/04/22 08:59:00;;;;;;;11.13;8.68;;;;;;;16.43;65.09;100526.56;4892301;29;20040;-69
2023/04/22 09:01:29;;;;;;;10.93;8.15;;;;;;;16.49;63.25;100512.22;4889266;29;20285;-69
2023/04/22 09:03:57;;;;;;;10.32;8.52;;;;;;;16.86;63.05;100499.22;4879277;29;20040;-69
2023/04/22 09:06:23;;;;;;;9.50;8.00;;;;;;;16.78;61.31;100507.50;4899752;29;20123;-69
2023/04/22 09:08:49;;;;;;;11.65;9.18;;;;;;;16.94;61.39;100510.38;4884956;29;20567;-69
2023/04/22 09:11:16;;;;;;;12.45;8.20;;;;;;;16.85;59.36;100513.38;4885104;29;20051;-70
2023/04/22 09:13:42;;;;;;;9.52;7.20;;;;;;;16.82;60.56;100514.34;4881204;29;20048;-69
2023/04/22 09:16:08;;;;;;;9.90;6.60;;;;;;;16.74;59.52;100500.63;4870745;29;20041;-70
2023/04/22 09:18:41;;;;;;;11.05;6.90;;;;;;;16.57;58.50;100496.88;4867265;29;20453;-69
2023/04/22 09:21:07;;;;;;;9.35;7.68;;;;;;;16.50;59.90;100503.38;4866319;29;20040;-69
2023/04/22 09:23:44;;;;;;;9.40;7.85;;;;;;;16.61;60.59;100498.47;4866205;29;20045;-69
2023/04/22 09:26:10;;;;;;;8.60;7.35;;;;;;;16.49;60.56;100512.22;4877946;29;20037;-69
2023/04/22 09:28:36;;;;;;;9.70;7.28;;;;;;;16.36;60.47;100513.66;4892733;29;20055;-69
2023/04/22 09:31:04;;;;;;;8.95;6.60;;;;;;;16.37;60.00;100504.81;4891138;29;20552;-68
2023/04/22 09:33:32;;;;;;;9.15;6.90;;;;;;;16.61;61.31;100497.63;4875591;29;20480;-68
2023/04/22 09:38:51;;;;;;;10.05;7.00;;;;;;;16.62;59.80;100476.41;5224626;23;20078;-69
2023/04/22 09:41:17;;;;;;;9.63;7.05;;;;;;;16.52;61.36;100490.94;4901823;29;20150;-69
2023/04/22 09:43:43;;;;;;;8.45;6.82;;;;;;;16.57;62.42;100493.41;4879533;29;20185;-68
2023/04/22 09:46:11;;;;;;;7.38;6.40;;;;;;;16.62;61.68;100491.41;4892957;29;20127;-69
2023/04/22 09:51:16;;;;;;;10.48;7.70;;;;;;;16.82;62.58;100495.84;4928905;23;20150;-68
2023/04/22 09:53:41;;;;;;;9.40;7.95;;;;;;;16.74;60.73;100490.88;4880092;29;20049;-68
2023/04/22 09:56:07;;;;;;;9.32;7.80;;;;;;;16.97;62.64;100503.16;4865317;29;20059;-68
2023/04/22 09:58:38;;;;;;;9.32;7.50;;;;;;;17.30;64.79;100505.22;4879960;29;20083;-68
2023/04/22 10:01:05;;;;;;;9.05;8.15;;;;;;;17.35;60.15;100501.50;4895588;29;20481;-70
2023/04/22 10:03:31;;;;;;;9.88;8.27;;;;;;;17.42;62.44;100498.50;4897088;29;20039;-70
2023/04/22 10:05:57;;;;;;;9.95;8.40;;;;;;;17.37;60.91;100499.63;4908536;29;20361;-69
2023/04/22 10:08:23;;;;;;;9.65;8.18;;;;;;;17.33;60.96;100506.03;4882439;29;20044;-71
2023/04/22 10:10:49;;;;;;;9.07;8.00;;;;;;;17.19;62.06;100501.34;4879711;29;20047;-70
2023/04/22 10:13:14;;;;;;;11.30;8.55;;;;;;;17.21;60.99;100500.34;4878463;29;20044;-70
2023/04/22 10:15:55;;;;;;;10.23;7.35;;;;;;;17.27;62.28;100499.22;4883044;29;20491;-70
2023/04/22 10:18:24;;;;;;;9.20;7.10;;;;;;;17.26;60.12;100513.38;4894430;29;20454;-70
2023/04/22 10:20:52;;;;;;;8.88;6.93;;;;;;;17.57;61.13;100496.06;4895705;29;20076;-70
2023/04/22 10:23:20;;;;;;;8.93;7.13;;;;;;;17.65;59.45;100502.72;4891488;29;20126;-75
2023/04/22 10:25:53;;;;;;;9.80;7.65;;;;;;;17.63;61.24;100509.91;4899998;29;20059;-71
2023/04/22 10:28:20;;;;;;;9.05;7.20;;;;;;;17.76;60.18;100506.69;4879369;29;20135;-70
2023/04/22 10:30:47;;;;;;;9.18;6.22;;;;;;;17.81;60.34;100507.31;4886635;29;20127;-70
2023/04/22 10:33:30;;;;;;;8.90;6.20;;;;;;;17.53;58.51;100511.25;4883061;29;20134;-71
2023/04/22 10:36:05;;;;;;;8.70;6.50;;;;;;;17.61;59.91;100513.53;4912623;29;20059;-70
2023/04/22 10:38:59;;;;;;;7.30;6.10;;;;;;;17.75;59.13;100511.09;4899672;29;20036;-71
2023/04/22 10:41:29;;;;;;;8.07;6.30;;;;;;;18.04;60.77;100500.09;4888051;29;20047;-71
2023/04/22 10:44:00;;;;;;;7.35;6.53;;;;;;;18.32;59.53;100505.75;4898601;29;20043;-76
2023/04/22 10:46:31;;;;;;;8.18;6.57;;;;;;;18.70;59.74;100503.00;4909801;29;20039;-75
2023/04/22 10:48:58;;;;;;;7.13;6.20;;;;;;;18.50;58.36;100498.69;4905310;29;20446;-72
2023/04/22 10:51:42;;;;;;;11.25;6.38;;;;;;;18.39;58.15;100494.84;4892302;29;20044;-70
2023/04/22 10:54:37;;;;;;;7.97;5.32;;;;;;;18.48;59.54;100483.78;4894986;29;20123;-71
2023/04/22 10:57:08;;;;;;;9.35;5.85;;;;;;;18.33;56.87;100486.28;4899068;29;20115;-70
2023/04/22 10:59:52;;;;;;;8.38;6.55;;;;;;;18.16;57.49;100478.28;4915002;29;20037;-71
2023/04/22 11:02:19;;;;;;;12.18;7.05;;;;;;;18.08;58.45;100485.75;4908751;29;20092;-74
2023/04/22 11:05:17;;;;;;;8.68;6.57;;;;;;;18.14;58.30;100490.75;4882064;29;20438;-71
2023/04/22 11:07:43;;;;;;;7.45;5.82;;;;;;;17.96;59.35;100492.53;4884073;29;20040;-71
2023/04/22 11:10:14;;;;;;;8.05;5.45;;;;;;;17.95;60.88;100488.16;4865147;29;20048;-71
2023/04/22 11:12:41;;;;;;;6.93;5.55;;;;;;;17.92;59.90;100488.28;4881183;29;20441;-72
2023/04/22 11:15:18;;;;;;;6.93;5.65;;;;;;;17.92;59.75;100498.91;4879500;29;20040;-73
2023/04/22 11:17:46;;;;;;;10.48;6.35;;;;;;;17.66;60.45;100496.50;4905593;29;20335;-73
2023/04/22 11:20:16;;;;;;;8.68;6.60;;;;;;;17.47;59.86;100499.16;4884132;29;20044;-74
2023/04/22 11:22:43;;;;;;;8.68;6.25;;;;;;;17.32;59.98;100494.56;4877379;29;20516;-69
2023/04/22 11:25:09;;;;;;;8.63;6.38;;;;;;;17.21;60.63;100494.19;4894200;29;20115;-69
2023/04/22 11:27:36;;;;;;;6.65;5.70;;;;;;;17.14;61.87;100491.81;4875824;29;20040;-69
2023/04/22 11:30:07;;;;;;;9.98;6.22;;;;;;;17.06;62.43;100491.28;4879166;29;20044;-69
2023/04/22 11:32:34;;;;;;;7.07;5.95;;;;;;;17.03;60.74;100487.94;4884710;29;20477;-69
2023/04/22 11:35:03;;;;;;;9.07;6.50;;;;;;;17.03;61.87;100488.78;4897618;29;20119;-70
2023/04/22 11:37:29;;;;;;;8.95;5.90;;;;;;;17.03;62.10;100486.13;4881689;29;21135;-69
2023/04/22 11:40:03;;;;;;;8.13;6.57;;;;;;;17.06;63.81;100486.00;4894190;29;20481;-69
2023/04/22 11:42:29;;;;;;;9.60;6.80;;;;;;;17.07;62.80;100497.47;4882220;29;20055;-69
2023/04/22 11:44:54;;;;;;;8.73;6.38;;;;;;;16.95;63.87;100489.13;4888927;29;20040;-69
2023/04/22 11:47:20;;;;;;;9.30;6.10;;;;;;;16.96;63.34;100496.13;4853919;29;20104;-69
2023/04/22 11:50:08;;;;;;;8.35;5.97;;;;;;;16.97;63.42;100499.66;4893402;29;20052;-69
2023/04/22 11:53:12;;;;;;;9.23;6.55;;;;;;;16.99;63.62;100499.59;4896487;29;20075;-70
2023/04/22 11:55:39;;;;;;;8.65;6.13;;;;;;;16.85;65.14;100500.13;4891815;29;20048;-69
2023/04/22 11:58:10;;;;;;;8.27;6.10;;;;;;;16.74;63.77;100495.31;4880576;29;20105;-70
2023/04/22 12:03:15;;;;;;;7.93;6.57;;;;;;;16.63;65.45;100499.25;5078799;23;20392;-69
2023/04/22 12:05:50;;;;;;;10.37;6.67;;;;;;;16.68;67.01;100500.84;4899746;29;20044;-69